Time;durP1;ratioP1;P1;durP2;ratioP2;P2;SDS_P1;SDS_P2;PMS_P1;PMS_P2;Temp;Humidity;BMP_temperature;BMP_pressure;BME280_temperature;BME280_humidity;BME280_pressure;Samples;Min_cycle;Max_cycle;Signal;HPM_P1;HPM_P2
2021/08/20 00:00:52;;;;;;;2.42;0.43;;;;;;;17.35;77.40;100312.00;5597835;23;20049;-74
2021/08/20 00:03:21;;;;;;;1.98;0.57;;;;;;;17.24;77.90;100314.19;5058586;28;20009;-75
2021/08/20 00:05:49;;;;;;;0.88;0.38;;;;;;;17.13;78.46;100302.56;5058824;28;20048;-76
2021/08/20 00:08:23;;;;;;;1.10;0.35;;;;;;;17.04;77.93;100307.19;5039917;28;20115;-73
2021/08/20 00:11:13;;;;;;;;;;;;;;;17.06;77.81;100313.22;5056705;28;20069;-73
2021/08/20 00:18:42;;;;;;;0.40;0.35;;;;;;;16.89;78.73;100311.13;5048038;28;20037;-76
2021/08/20 00:21:22;;;;;;;0.47;0.40;;;;;;;16.85;78.42;100313.69;5019274;28;20073;-75
2021/08/20 00:23:48;;;;;;;0.47;0.47;;;;;;;16.79;78.85;100300.28;4985120;28;20037;-75
2021/08/20 00:29:27;;;;;;;0.20;0.20;;;;;;;16.82;79.02;100297.75;5005563;28;20040;-75
2021/08/20 00:31:53;;;;;;;0.40;0.40;;;;;;;16.80;78.50;100299.97;5000283;28;20094;-75
2021/08/20 00:34:40;;;;;;;1.45;0.47;;;;;;;16.87;78.38;100297.63;4986605;28;20030;-75
2021/08/20 00:37:22;;;;;;;0.38;0.38;;;;;;;16.80;78.96;100297.22;4997973;28;20041;-76
2021/08/20 00:53:49;;;;;;;1.55;0.30;;;;;;;17.03;78.38;100306.38;4988800;28;20108;-74
2021/08/20 01:00:24;;;;;;;1.45;0.47;;;;;;;16.96;77.75;100294.13;4986169;28;20131;-76
2021/08/20 01:04:01;;;;;;;;;;;;;;;;;;;;;
2021/08/20 01:07:38;;;;;;;;;;;;;;;;;;;;;
2021/08/20 01:10:29;;;;;;;0.30;0.30;;;;;;;17.05;77.36;100303.31;4864267;29;20136;-77
2021/08/20 01:30:44;;;;;;;;;;;;;;;;;;;;;
2021/08/20 01:33:57;;;;;;;0.30;0.30;;;;;;;17.21;77.08;100301.00;4873339;29;20068;-74
2021/08/20 01:39:44;;;;;;;0.30;0.30;;;;;;;17.15;77.54;100289.25;4890551;29;20048;-74
2021/08/20 01:42:12;;;;;;;0.45;0.45;;;;;;;17.19;77.20;100290.25;4886635;29;20064;-74
2021/08/20 01:44:37;;;;;;;0.30;0.30;;;;;;;17.20;77.23;100297.41;4927426;29;20052;-73
2021/08/20 01:47:18;;;;;;;0.20;0.20;;;;;;;17.16;76.97;100282.59;5002821;28;20030;-74
2021/08/20 01:49:44;;;;;;;0.17;0.17;;;;;;;17.26;77.04;100292.59;5019908;28;20060;-74
2021/08/20 01:52:09;;;;;;;0.28;0.28;;;;;;;17.21;77.05;100290.75;5019935;28;20427;-74
2021/08/20 01:54:38;;;;;;;0.28;0.28;;;;;;;17.31;77.23;100305.47;5001190;28;20092;-75
2021/08/20 01:57:03;;;;;;;0.45;0.38;;;;;;;17.25;77.00;100297.28;5020867;28;20104;-74
2021/08/20 01:59:29;;;;;;;0.30;0.30;;;;;;;17.20;77.27;100280.84;4984237;28;20123;-74
2021/08/20 02:01:55;;;;;;;0.32;0.28;;;;;;;17.18;77.01;100288.63;5005653;28;20030;-73
2021/08/20 02:04:20;;;;;;;0.85;0.38;;;;;;;17.22;77.18;100292.38;5022658;28;20369;-73
2021/08/20 02:06:46;;;;;;;0.10;0.10;;;;;;;17.17;77.08;100294.47;5020220;28;20052;-73
2021/08/20 02:10:10;;;;;;;0.40;0.40;;;;;;;17.19;76.56;100304.06;5004764;28;20192;-75
2021/08/20 02:20:01;;;;;;;;;;;;;;;;;;;;;
2021/08/20 02:23:16;;;;;;;1.20;0.50;;;;;;;16.98;77.01;100302.91;4949130;28;20134;-73
2021/08/20 02:25:42;;;;;;;0.75;0.60;;;;;;;16.89;76.84;100306.44;5003473;28;20044;-74
2021/08/20 02:28:08;;;;;;;1.17;0.40;;;;;;;16.87;76.54;100302.31;5000609;28;20025;-74
2021/08/20 02:30:34;;;;;;;0.90;0.43;;;;;;;16.86;77.12;100300.69;5012256;28;20424;-74
2021/08/20 02:32:59;;;;;;;1.65;0.20;;;;;;;16.83;76.90;100293.03;5002644;28;20041;-75
2021/08/20 02:35:25;;;;;;;0.35;0.35;;;;;;;16.83;77.17;100295.78;5001432;28;20037;-74
2021/08/20 02:37:52;;;;;;;0.73;0.40;;;;;;;16.84;77.09;100303.75;5020634;28;20030;-73
2021/08/20 02:40:18;;;;;;;0.40;0.40;;;;;;;16.87;77.14;100297.63;5013666;28;20025;-74
2021/08/20 02:42:45;;;;;;;0.40;0.30;;;;;;;16.84;77.05;100298.22;4997771;28;20065;-72
2021/08/20 02:45:11;;;;;;;0.60;0.25;;;;;;;16.84;76.63;100298.22;5013740;28;20032;-74
2021/08/20 02:47:41;;;;;;;0.40;0.40;;;;;;;16.81;76.95;100292.53;5018152;28;20030;-74
2021/08/20 02:50:37;;;;;;;0.30;0.30;;;;;;;16.83;77.09;100290.25;4999315;28;20065;-74
2021/08/20 02:56:19;;;;;;;0.10;0.10;;;;;;;16.87;76.76;100294.88;2420278;26;20050;-73
2021/08/20 02:58:48;;;;;;;0.30;0.30;;;;;;;16.84;76.48;100292.72;5011640;28;20034;-74
2021/08/20 03:01:22;;;;;;;0.30;0.17;;;;;;;16.90;76.42;100297.00;5280056;22;20126;-74
2021/08/20 03:07:20;;;;;;;0.52;0.30;;;;;;;16.91;76.50;100304.19;5014553;28;20091;-74
2021/08/20 03:13:37;;;;;;;0.40;0.30;;;;;;;16.96;76.63;100302.44;5017739;28;20044;-73
2021/08/20 03:16:03;;;;;;;0.20;0.20;;;;;;;16.87;76.16;100297.63;5006405;28;20034;-74
2021/08/20 03:18:30;;;;;;;0.30;0.30;;;;;;;16.89;76.31;100294.56;4998769;28;20141;-73
2021/08/20 03:20:58;;;;;;;0.10;0.10;;;;;;;16.95;76.18;100303.53;4982426;28;20498;-73
2021/08/20 03:23:24;;;;;;;0.45;0.30;;;;;;;16.96;76.11;100299.66;4986869;28;20014;-72
2021/08/20 03:25:50;;;;;;;0.30;0.30;;;;;;;16.96;76.13;100300.47;4983120;28;20061;-72
2021/08/20 03:28:16;;;;;;;0.38;0.20;;;;;;;16.91;75.83;100298.66;4976005;28;20042;-72
2021/08/20 03:30:44;;;;;;;0.40;0.40;;;;;;;16.91;75.55;100298.66;4962558;28;20064;-72
2021/08/20 03:33:10;;;;;;;0.68;0.28;;;;;;;16.90;75.47;100294.25;4982260;28;20045;-72
2021/08/20 03:35:36;;;;;;;0.20;0.20;;;;;;;16.87;75.88;100292.13;4983594;28;20034;-72
2021/08/20 03:38:02;;;;;;;0.30;0.30;;;;;;;16.86;75.55;100284.91;4974189;28;20034;-72
2021/08/20 03:40:28;;;;;;;0.38;0.38;;;;;;;16.91;75.55;100298.66;4969490;28;20033;-73
2021/08/20 03:42:55;;;;;;;0.22;0.22;;;;;;;16.85;75.90;100294.34;4983015;28;20033;-72
2021/08/20 03:45:22;;;;;;;0.25;0.25;;;;;;;16.87;75.65;100297.63;5014056;28;20034;-73
2021/08/20 03:47:48;;;;;;;0.20;0.20;;;;;;;16.88;75.75;100288.22;4999145;28;20034;-72
2021/08/20 03:50:20;;;;;;;0.20;0.20;;;;;;;16.82;75.73;100283.09;5014006;28;20475;-73
2021/08/20 03:52:46;;;;;;;0.20;0.20;;;;;;;16.89;75.77;100305.59;5001301;28;20648;-74
2021/08/20 03:55:12;;;;;;;0.40;0.40;;;;;;;16.85;75.45;100293.50;4960432;28;20066;-73
2021/08/20 03:57:38;;;;;;;0.30;0.22;;;;;;;16.86;75.67;100300.69;4998304;28;20042;-73
2021/08/20 04:00:06;;;;;;;0.25;0.20;;;;;;;16.83;75.43;100295.78;5011544;28;20165;-73
2021/08/20 04:02:32;;;;;;;0.30;0.30;;;;;;;16.86;75.72;100295.97;4984232;28;20048;-73
2021/08/20 04:04:58;;;;;;;0.85;0.40;;;;;;;16.84;75.14;100287.19;4984198;28;20034;-72
2021/08/20 04:07:24;;;;;;;0.20;0.20;;;;;;;16.87;75.56;100297.63;4983846;28;20025;-72
2021/08/20 04:09:50;;;;;;;0.25;0.20;;;;;;;16.87;75.64;100291.28;4974914;28;20049;-73
2021/08/20 04:12:16;;;;;;;0.30;0.30;;;;;;;16.83;75.64;100291.06;4979171;28;20133;-72
2021/08/20 04:14:42;;;;;;;0.13;0.13;;;;;;;16.84;75.38;100289.13;4995137;28;20113;-73
2021/08/20 04:17:08;;;;;;;0.63;0.28;;;;;;;16.88;75.42;100302.03;5001134;28;20030;-74
2021/08/20 04:19:34;;;;;;;0.30;0.20;;;;;;;16.88;75.42;100304.81;5017401;28;20036;-73
2021/08/20 04:22:00;;;;;;;0.30;0.28;;;;;;;16.86;75.58;100298.72;4965940;28;20104;-73
2021/08/20 04:24:25;;;;;;;0.28;0.20;;;;;;;16.86;75.01;100293.19;4975458;28;20022;-73
2021/08/20 04:26:51;;;;;;;0.43;0.20;;;;;;;16.86;75.17;100295.97;5014439;28;20511;-72
2021/08/20 04:29:17;;;;;;;0.57;0.20;;;;;;;16.86;75.24;100304.25;4997604;28;20037;-73
2021/08/20 04:31:44;;;;;;;0.20;0.20;;;;;;;16.84;75.64;100298.22;4986662;28;20030;-73
2021/08/20 04:34:25;;;;;;;0.50;0.40;;;;;;;16.86;75.62;100297.91;5010460;28;20077;-73
2021/08/20 04:36:54;;;;;;;0.20;0.20;;;;;;;16.83;75.04;100302.13;5022882;28;20041;-74
2021/08/20 04:39:29;;;;;;;0.10;0.10;;;;;;;16.83;75.30;100304.88;5014108;28;20092;-74
2021/08/20 04:41:58;;;;;;;;;;;;;;;16.96;75.00;100311.53;5009688;28;20038;-73
2021/08/20 04:44:35;;;;;;;0.20;0.20;;;;;;;16.85;74.97;100310.91;5009243;28;19937;-73
2021/08/20 04:47:20;;;;;;;0.30;0.25;;;;;;;16.90;74.73;100318.28;5037436;28;20045;-75
2021/08/20 04:49:45;;;;;;;0.30;0.30;;;;;;;16.85;74.99;100310.09;5037865;28;20033;-74
2021/08/20 04:52:13;;;;;;;0.10;0.10;;;;;;;16.89;75.42;100306.44;5012203;28;20017;-74
2021/08/20 04:54:38;;;;;;;0.60;0.10;;;;;;;16.92;75.41;100311.34;5033990;28;20365;-73
2021/08/20 04:57:22;;;;;;;0.10;0.10;;;;;;;16.95;75.13;100320.94;5038520;28;20036;-74
2021/08/20 04:59:48;;;;;;;0.10;0.10;;;;;;;16.91;75.45;100309.69;5032266;28;20042;-74
2021/08/20 05:02:14;;;;;;;0.35;0.10;;;;;;;16.93;74.92;100317.66;4998627;28;20555;-74
2021/08/20 05:04:45;;;;;;;2.47;0.28;;;;;;;16.96;74.71;100328.09;5003761;28;20064;-73
2021/08/20 05:07:12;;;;;;;0.30;0.20;;;;;;;16.86;74.89;100307.00;5014641;28;20017;-74
2021/08/20 05:09:37;;;;;;;0.20;0.20;;;;;;;16.97;74.92;100317.84;5030801;28;20076;-74
2021/08/20 05:12:31;;;;;;;0.10;0.10;;;;;;;16.99;75.22;100310.88;5003770;28;20040;-74
2021/08/20 05:14:58;;;;;;;0.00;0.00;;;;;;;17.03;74.83;100311.09;5020948;28;20047;-74
2021/08/20 05:17:25;;;;;;;0.00;0.00;;;;;;;17.04;74.52;100313.56;5023504;28;20032;-75
2021/08/20 05:19:53;;;;;;;0.10;0.10;;;;;;;17.06;75.13;100316.00;5019967;28;20034;-74
2021/08/20 05:22:54;;;;;;;0.17;0.17;;;;;;;17.16;74.90;100335.09;5038131;28;20030;-74
2021/08/20 05:25:21;;;;;;;0.10;0.10;;;;;;;17.12;74.86;100331.31;4988375;28;20022;-73
2021/08/20 05:27:48;;;;;;;0.15;0.10;;;;;;;17.14;74.71;100329.03;4979763;28;20044;-73
2021/08/20 05:30:16;;;;;;;0.17;0.17;;;;;;;17.13;74.89;100321.91;5037780;28;20028;-74
2021/08/20 05:32:42;;;;;;;0.13;0.10;;;;;;;17.17;74.76;100330.38;5006847;28;20450;-73
2021/08/20 05:35:12;;;;;;;0.08;0.08;;;;;;;17.20;74.38;100338.88;5051519;28;20044;-74
2021/08/20 05:37:38;;;;;;;0.20;0.20;;;;;;;17.20;74.16;100333.34;5047226;28;20046;-74
2021/08/20 05:40:05;;;;;;;0.30;0.30;;;;;;;17.19;74.37;100337.22;5023183;28;20022;-74
2021/08/20 05:42:31;;;;;;;0.47;0.20;;;;;;;17.19;74.36;100334.47;4986530;28;20388;-74
2021/08/20 05:44:57;;;;;;;0.20;0.20;;;;;;;17.22;74.87;100344.88;5021636;28;20025;-73
2021/08/20 05:47:23;;;;;;;0.32;0.32;;;;;;;17.15;74.03;100338.16;5006578;28;20033;-73
2021/08/20 05:49:49;;;;;;;5.22;0.70;;;;;;;17.14;73.91;100333.75;4988741;28;20029;-74
2021/08/20 05:52:15;;;;;;;1.83;0.52;;;;;;;17.17;74.15;100345.03;5011777;28;20029;-73
2021/08/20 05:54:41;;;;;;;3.40;0.30;;;;;;;17.17;74.39;100345.03;4983566;28;20080;-74
2021/08/20 05:57:07;;;;;;;0.70;0.63;;;;;;;17.15;74.21;100343.69;5021601;28;20383;-75
2021/08/20 05:59:33;;;;;;;1.17;0.45;;;;;;;17.16;74.07;100348.09;4992146;28;20033;-74
2021/08/20 06:02:07;;;;;;;3.80;0.55;;;;;;;17.18;74.43;100341.13;4985020;28;20075;-73
2021/08/20 06:04:33;;;;;;;0.20;0.20;;;;;;;17.18;74.07;100338.34;5012940;28;20033;-75
2021/08/20 06:06:59;;;;;;;0.30;0.30;;;;;;;17.28;74.40;100351.91;5003558;28;20388;-75
2021/08/20 06:09:31;;;;;;;0.25;0.20;;;;;;;17.30;73.93;100351.59;4999714;28;20037;-74
2021/08/20 06:11:56;;;;;;;0.08;0.08;;;;;;;17.38;74.56;100355.59;5016456;28;20179;-73
2021/08/20 06:14:23;;;;;;;0.10;0.10;;;;;;;17.47;74.34;100352.88;5044310;28;20112;-72
2021/08/20 06:17:26;;;;;;;0.20;0.20;;;;;;;17.60;74.20;100358.34;5003598;28;20026;-77
2021/08/20 06:25:56;;;;;;;0.73;0.38;;;;;;;17.62;73.26;100356.09;5014085;28;20034;-72
2021/08/20 06:28:22;;;;;;;4.97;0.40;;;;;;;17.65;73.72;100348.28;5001077;28;20715;-74
2021/08/20 06:30:47;;;;;;;0.40;0.40;;;;;;;17.64;73.92;100361.31;5013175;28;20233;-74
2021/08/20 06:33:14;;;;;;;0.30;0.30;;;;;;;17.67;73.94;100362.59;5010346;28;20018;-73
2021/08/20 06:35:39;;;;;;;0.20;0.20;;;;;;;17.71;73.77;100358.91;5015008;28;20495;-74
2021/08/20 06:38:05;;;;;;;0.30;0.20;;;;;;;17.75;73.45;100359.09;4999014;28;20029;-74
2021/08/20 06:40:30;;;;;;;0.68;0.13;;;;;;;17.82;72.93;100359.44;5003883;28;20097;-73
2021/08/20 06:42:56;;;;;;;0.85;0.25;;;;;;;17.86;73.47;100360.47;5019685;28;20033;-75
2021/08/20 06:45:21;;;;;;;0.43;0.40;;;;;;;17.92;73.43;100363.94;5010954;28;20053;-75
2021/08/20 06:47:47;;;;;;;0.73;0.50;;;;;;;17.95;73.24;100357.75;5012386;28;20033;-73
2021/08/20 06:50:12;;;;;;;1.25;0.57;;;;;;;17.95;72.76;100364.09;4987949;28;20038;-74
2021/08/20 06:52:38;;;;;;;0.80;0.50;;;;;;;17.94;72.74;100365.22;5002587;28;20038;-77
2021/08/20 06:55:04;;;;;;;0.63;0.52;;;;;;;17.99;72.60;100358.78;4991192;28;20030;-72
2021/08/20 06:57:29;;;;;;;0.93;0.65;;;;;;;17.99;72.51;100363.47;4979059;28;20480;-72
2021/08/20 06:59:55;;;;;;;0.40;0.40;;;;;;;18.06;72.69;100369.38;5010297;28;20029;-72
2021/08/20 07:02:20;;;;;;;0.50;0.50;;;;;;;18.12;72.40;100373.63;5021329;28;20089;-72
2021/08/20 07:04:46;;;;;;;0.60;0.57;;;;;;;18.25;72.51;100378.25;5025464;28;20041;-72
2021/08/20 07:07:17;;;;;;;0.50;0.50;;;;;;;18.34;71.93;100380.22;5012045;28;20064;-73
2021/08/20 07:09:55;;;;;;;2.17;0.40;;;;;;;18.41;72.56;100380.59;5014835;28;20732;-72
2021/08/20 07:12:28;;;;;;;0.20;0.20;;;;;;;18.53;72.63;100375.28;5005422;28;20117;-74
2021/08/20 07:14:58;;;;;;;0.65;0.65;;;;;;;18.65;72.10;100380.19;4999426;28;20121;-77
2021/08/20 07:17:46;;;;;;;0.70;0.40;;;;;;;18.72;71.49;100380.53;4983218;28;20033;-74
2021/08/20 07:20:12;;;;;;;0.55;0.50;;;;;;;18.72;71.54;100386.06;4982003;28;20499;-72
2021/08/20 07:22:45;;;;;;;0.60;0.30;;;;;;;18.85;71.66;100389.81;5007527;28;20030;-71
2021/08/20 07:25:18;;;;;;;0.65;0.60;;;;;;;18.95;71.33;100386.81;5001781;28;20512;-71
2021/08/20 07:31:00;;;;;;;0.30;0.30;;;;;;;19.15;70.70;100370.69;5249107;23;20053;-74
2021/08/20 07:37:00;;;;;;;0.30;0.30;;;;;;;19.49;70.10;100396.75;5012544;28;20435;-72
2021/08/20 07:39:41;;;;;;;0.38;0.35;;;;;;;19.58;69.83;100378.19;5047951;28;20029;-72
2021/08/20 07:42:07;;;;;;;0.20;0.20;;;;;;;19.79;69.39;100392.19;5043443;28;20021;-71
2021/08/20 07:44:33;;;;;;;1.73;0.25;;;;;;;19.99;69.31;100396.25;5051811;28;20032;-71
2021/08/20 07:47:01;;;;;;;0.43;0.30;;;;;;;20.23;69.04;100405.97;5011732;28;20033;-70
2021/08/20 07:49:29;;;;;;;0.68;0.30;;;;;;;20.41;68.15;100409.47;5007811;28;20036;-72
2021/08/20 07:51:56;;;;;;;0.22;0.22;;;;;;;20.51;68.01;100411.88;5033847;28;20029;-71
2021/08/20 07:54:22;;;;;;;0.43;0.22;;;;;;;20.66;68.11;100415.25;5035367;28;20021;-72
2021/08/20 07:56:47;;;;;;;0.40;0.40;;;;;;;20.77;67.06;100415.75;5038433;28;20029;-71
2021/08/20 07:59:13;;;;;;;1.10;0.45;;;;;;;20.79;66.38;100418.97;5051898;28;20025;-70
2021/08/20 08:01:39;;;;;;;0.57;0.40;;;;;;;20.80;65.92;100420.63;5048748;28;20032;-72
2021/08/20 08:04:04;;;;;;;0.65;0.47;;;;;;;20.81;65.53;100419.44;5054733;28;20551;-71
2021/08/20 08:06:30;;;;;;;0.88;0.30;;;;;;;20.95;66.11;100417.25;5046126;28;20025;-71
2021/08/20 08:08:56;;;;;;;0.40;0.30;;;;;;;21.09;66.02;100417.81;5033074;28;20034;-69
2021/08/20 08:11:21;;;;;;;0.17;0.15;;;;;;;21.24;65.98;100426.72;5048519;28;20032;-70
2021/08/20 08:13:47;;;;;;;0.30;0.30;;;;;;;21.29;65.62;100426.50;5027199;28;20033;-69
2021/08/20 08:16:13;;;;;;;0.40;0.28;;;;;;;21.32;65.13;100428.63;5045305;28;20048;-72
2021/08/20 08:18:38;;;;;;;0.30;0.30;;;;;;;21.34;65.47;100429.09;5051011;28;20029;-70
2021/08/20 08:21:04;;;;;;;0.30;0.20;;;;;;;21.38;65.26;100424.47;5035333;28;20029;-70
2021/08/20 08:23:31;;;;;;;0.20;0.20;;;;;;;21.55;65.21;100439.41;5027665;28;20521;-71
2021/08/20 08:25:56;;;;;;;0.20;0.20;;;;;;;21.52;64.91;100426.19;5032919;28;20159;-70
2021/08/20 08:28:23;;;;;;;0.43;0.30;;;;;;;21.36;64.63;100437.91;5026796;28;20026;-70
2021/08/20 08:30:53;;;;;;;0.30;0.30;;;;;;;21.23;64.57;100445.38;5041369;28;20049;-70
2021/08/20 08:33:19;;;;;;;0.40;0.40;;;;;;;21.24;64.28;100446.16;5005583;28;20369;-69
2021/08/20 08:35:45;;;;;;;3.67;0.63;;;;;;;21.25;64.03;100428.34;5017510;28;20124;-72
2021/08/20 08:38:13;;;;;;;0.65;0.60;;;;;;;21.37;63.94;100433.16;5019396;28;20047;-72
2021/08/20 08:40:42;;;;;;;1.02;0.50;;;;;;;21.48;63.87;100439.13;5031657;28;20036;-71
2021/08/20 08:43:08;;;;;;;1.30;0.45;;;;;;;21.58;63.09;100438.72;5031030;28;20024;-70
2021/08/20 08:45:35;;;;;;;0.95;0.43;;;;;;;21.66;62.71;100440.63;5029896;28;20044;-71
2021/08/20 08:48:03;;;;;;;0.77;0.65;;;;;;;21.66;62.07;100446.19;5013926;28;20030;-70
2021/08/20 08:50:30;;;;;;;0.40;0.30;;;;;;;21.65;62.13;100447.34;5044034;28;20032;-69
2021/08/20 08:52:56;;;;;;;0.63;0.63;;;;;;;21.71;62.14;100448.78;5010507;28;20166;-70
2021/08/20 08:55:22;;;;;;;0.88;0.50;;;;;;;21.74;61.33;100459.25;5019976;28;20033;-71
2021/08/20 08:57:47;;;;;;;0.57;0.40;;;;;;;21.71;61.49;100454.34;5017689;28;20162;-71
2021/08/20 09:00:14;;;;;;;0.35;0.35;;;;;;;21.71;61.65;100462.69;5004447;28;20040;-71
2021/08/20 09:02:40;;;;;;;0.50;0.40;;;;;;;21.65;61.79;100452.91;5041791;28;20324;-72
2021/08/20 09:05:10;;;;;;;1.80;0.60;;;;;;;21.68;61.63;100455.00;5024457;28;20493;-69
2021/08/20 09:07:40;;;;;;;0.75;0.63;;;;;;;21.76;61.51;100467.25;5027585;28;20053;-70
2021/08/20 09:10:21;;;;;;;1.27;0.52;;;;;;;21.85;61.30;100447.69;5044373;28;20031;-71
2021/08/20 09:12:58;;;;;;;0.63;0.55;;;;;;;21.93;61.22;100449.56;5027448;28;20681;-70
2021/08/20 09:15:30;;;;;;;7.15;0.50;;;;;;;21.89;60.94;100448.59;5030991;28;20425;-72
2021/08/20 09:17:58;;;;;;;1.77;0.57;;;;;;;21.96;61.00;100448.84;5026605;28;20033;-72
2021/08/20 09:20:26;;;;;;;0.50;0.50;;;;;;;21.90;60.79;100458.59;5039959;28;20023;-69
2021/08/20 09:22:54;;;;;;;0.32;0.32;;;;;;;21.88;61.24;100461.72;5044910;28;20024;-70
2021/08/20 09:25:34;;;;;;;3.35;0.55;;;;;;;22.00;61.43;100458.16;5045961;28;20017;-69
2021/08/20 09:28:24;;;;;;;0.55;0.55;;;;;;;22.11;61.04;100445.44;5034069;28;20038;-71
2021/08/20 09:30:56;;;;;;;0.90;0.63;;;;;;;22.35;60.36;100460.59;5043637;28;20046;-73
2021/08/20 09:33:51;;;;;;;0.45;0.40;;;;;;;22.44;58.90;100455.75;5043830;28;20021;-72
2021/08/20 09:36:19;;;;;;;1.48;0.50;;;;;;;22.36;58.68;100456.66;5019894;28;20891;-74
2021/08/20 09:38:52;;;;;;;0.40;0.40;;;;;;;22.48;59.31;100451.09;5043193;28;20036;-72
2021/08/20 09:41:27;;;;;;;1.67;0.68;;;;;;;22.63;58.70;100457.16;5039996;28;20417;-72
2021/08/20 09:44:00;;;;;;;0.40;0.40;;;;;;;22.65;58.97;100452.06;5044105;28;20094;-74
2021/08/20 09:46:42;;;;;;;0.70;0.50;;;;;;;22.57;58.50;100450.19;5019917;28;20336;-73
2021/08/20 09:49:09;;;;;;;7.70;1.00;;;;;;;22.44;57.68;100452.16;5043265;28;20167;-72
2021/08/20 09:51:47;;;;;;;1.55;0.70;;;;;;;22.46;58.08;100450.66;5000248;28;20131;-73
2021/08/20 09:54:22;;;;;;;0.77;0.77;;;;;;;22.47;57.41;100457.84;5023596;28;20029;-73
2021/08/20 09:56:49;;;;;;;1.00;0.90;;;;;;;22.28;56.98;100455.59;5039294;28;20749;-71
2021/08/20 09:59:17;;;;;;;0.75;0.75;;;;;;;22.28;58.37;100460.31;5030569;28;20034;-73
2021/08/20 10:01:50;;;;;;;1.45;0.90;;;;;;;22.33;58.01;100462.94;5028932;28;20044;-72
2021/08/20 10:04:17;;;;;;;0.77;0.77;;;;;;;22.34;58.09;100461.78;5019232;28;20064;-71
2021/08/20 10:06:45;;;;;;;1.70;1.60;;;;;;;22.25;57.90;100472.16;5033256;28;20459;-71
2021/08/20 10:09:14;;;;;;;2.67;1.88;;;;;;;;;;5046263;28;20033;-72
2021/08/20 10:11:54;;;;;;;2.35;1.48;;;;;;;21.75;58.99;100476.75;5028422;28;20025;-71
2021/08/20 10:14:22;;;;;;;1.38;1.02;;;;;;;21.50;59.68;100464.66;5030186;28;20032;-70
2021/08/20 10:16:48;;;;;;;1.02;0.98;;;;;;;21.53;60.13;100469.56;5051951;28;20035;-70
2021/08/20 10:19:13;;;;;;;0.70;0.70;;;;;;;21.49;60.51;100474.94;5035015;28;20030;-71
2021/08/20 10:21:41;;;;;;;1.00;0.90;;;;;;;21.52;60.38;100485.41;5039722;28;20037;-72
2021/08/20 10:24:09;;;;;;;1.55;0.85;;;;;;;21.49;60.35;100485.25;5047550;28;20506;-72
2021/08/20 10:26:44;;;;;;;0.77;0.68;;;;;;;21.56;60.63;100489.16;5064141;28;20047;-72
2021/08/20 10:29:10;;;;;;;0.82;0.82;;;;;;;21.52;61.01;100490.19;5050490;28;20017;-72
2021/08/20 10:31:39;;;;;;;1.02;0.93;;;;;;;21.42;61.51;100489.41;5049622;28;20041;-71
2021/08/20 10:34:30;;;;;;;1.20;0.90;;;;;;;21.45;61.75;100496.25;5014946;28;20029;-72
2021/08/20 10:37:26;;;;;;;0.93;0.80;;;;;;;21.57;62.04;100484.41;5049239;28;20033;-71
2021/08/20 10:43:48;;;;;;;0.40;0.40;;;;;;;22.93;61.92;100480.06;5037941;28;20110;-73
2021/08/20 10:54:24;;;;;;;0.15;0.15;;;;;;;25.60;59.34;100493.72;5052333;28;20090;-72
2021/08/20 10:56:50;;;;;;;0.20;0.20;;;;;;;26.16;57.72;100486.06;5047277;28;20041;-72
2021/08/20 10:59:43;;;;;;;0.52;0.20;;;;;;;26.15;56.37;100484.41;5052795;28;20040;-73
2021/08/20 11:02:18;;;;;;;1.50;0.32;;;;;;;25.86;54.22;100486.66;5038661;28;20025;-72
2021/08/20 11:04:59;;;;;;;0.73;0.57;;;;;;;25.20;54.12;100492.00;5063599;28;20021;-71
2021/08/20 11:07:37;;;;;;;0.45;0.40;;;;;;;24.55;54.51;100478.41;5058206;28;20029;-72
2021/08/20 11:10:11;;;;;;;0.73;0.50;;;;;;;24.29;54.72;100476.13;5052727;28;20025;-72
2021/08/20 11:12:52;;;;;;;0.20;0.20;;;;;;;24.16;55.06;100475.38;5049192;28;20092;-72
2021/08/20 11:15:21;;;;;;;0.20;0.20;;;;;;;23.90;54.83;100470.25;5055499;28;20045;-72
2021/08/20 11:17:49;;;;;;;0.45;0.35;;;;;;;23.68;54.75;100477.97;5055833;28;20495;-74
2021/08/20 11:20:37;;;;;;;0.75;0.60;;;;;;;23.29;55.15;100475.66;5054472;28;20080;-71
2021/08/20 11:23:11;;;;;;;0.22;0.22;;;;;;;23.11;56.13;100471.47;5048268;28;20028;-71
2021/08/20 11:25:53;;;;;;;0.40;0.20;;;;;;;23.16;56.00;100477.63;5052888;28;20029;-73
2021/08/20 11:28:27;;;;;;;1.92;0.50;;;;;;;23.16;55.80;100471.25;5040730;28;20061;-73
2021/08/20 11:31:05;;;;;;;0.40;0.40;;;;;;;23.31;56.42;100473.31;5047717;28;20042;-72
2021/08/20 11:33:44;;;;;;;0.30;0.30;;;;;;;23.70;56.72;100478.47;5050883;28;20063;-72
2021/08/20 11:36:21;;;;;;;0.40;0.40;;;;;;;24.28;56.19;100471.69;5030538;28;20035;-74
2021/08/20 11:38:56;;;;;;;1.58;0.47;;;;;;;24.79;55.89;100480.22;5036894;28;20452;-72
2021/08/20 11:41:25;;;;;;;0.30;0.22;;;;;;;25.44;54.95;100470.56;5045375;28;20024;-72
2021/08/20 11:43:56;;;;;;;0.45;0.40;;;;;;;26.05;53.03;100473.81;5018938;28;20106;-71
2021/08/20 11:46:42;;;;;;;0.30;0.20;;;;;;;27.53;54.60;100477.09;5037192;28;20021;-71
2021/08/20 11:57:38;;;;;;;1.08;0.30;;;;;;;27.46;46.89;100468.56;4066355;26;20096;-72
2021/08/20 12:00:04;;;;;;;0.50;0.50;;;;;;;27.02;46.99;100463.50;5018567;28;20030;-72
2021/08/20 12:02:29;;;;;;;0.88;0.57;;;;;;;26.44;46.48;100476.53;5034810;28;20031;-71
2021/08/20 12:05:15;;;;;;;0.30;0.30;;;;;;;25.89;48.15;100477.50;5019364;28;20029;-71
2021/08/20 12:07:40;;;;;;;0.90;0.50;;;;;;;25.23;48.91;100474.47;5033282;28;20029;-71
2021/08/20 12:10:08;;;;;;;1.27;0.75;;;;;;;24.74;49.84;100474.91;5034489;28;20056;-72
2021/08/20 12:12:34;;;;;;;4.43;1.00;;;;;;;24.20;49.89;100474.28;5034525;28;20048;-72
2021/08/20 12:15:00;;;;;;;1.58;0.80;;;;;;;23.80;51.32;100472.38;5031775;28;20025;-70
2021/08/20 12:17:30;;;;;;;1.15;0.90;;;;;;;23.52;52.06;100473.16;5022995;28;20033;-72
2021/08/20 12:19:56;;;;;;;0.95;0.82;;;;;;;23.37;53.02;100471.09;5021976;28;20037;-70
2021/08/20 12:22:36;;;;;;;1.60;0.80;;;;;;;23.21;53.72;100475.78;5029273;28;20025;-71
2021/08/20 12:25:14;;;;;;;0.70;0.70;;;;;;;23.00;54.72;100471.13;5017198;28;20025;-71
2021/08/20 12:27:42;;;;;;;0.73;0.73;;;;;;;22.79;54.49;100469.25;5031875;28;20029;-71
2021/08/20 12:30:14;;;;;;;0.77;0.77;;;;;;;22.74;54.42;100472.28;4986465;28;20033;-71
2021/08/20 12:32:43;;;;;;;1.88;0.82;;;;;;;22.64;54.89;100478.31;5015741;28;20026;-72
2021/08/20 12:35:17;;;;;;;0.80;0.40;;;;;;;22.63;54.46;100476.66;5018185;28;20083;-71
2021/08/20 12:38:02;;;;;;;0.60;0.60;;;;;;;22.78;55.09;100476.00;5023317;28;20033;-72
2021/08/20 12:40:35;;;;;;;0.32;0.30;;;;;;;22.93;54.32;100468.09;5014336;28;20022;-71
2021/08/20 12:43:01;;;;;;;1.75;0.73;;;;;;;23.05;54.28;100478.44;5008275;28;20052;-73
2021/08/20 12:45:26;;;;;;;0.60;0.55;;;;;;;23.27;54.46;100474.38;5024748;28;20025;-70
2021/08/20 12:48:07;;;;;;;0.82;0.47;;;;;;;23.59;54.01;100466.97;5020465;28;20178;-73
2021/08/20 12:50:34;;;;;;;0.70;0.60;;;;;;;23.74;53.12;100468.19;5010329;28;20043;-72
2021/08/20 12:53:08;;;;;;;0.35;0.35;;;;;;;23.80;52.81;100466.78;5033542;28;20028;-72
2021/08/20 12:55:43;;;;;;;1.15;0.60;;;;;;;23.81;51.59;100464.78;5028893;28;20029;-74
2021/08/20 12:58:09;;;;;;;1.98;0.70;;;;;;;23.75;51.89;100469.00;5025583;28;20046;-73
2021/08/20 13:00:37;;;;;;;0.60;0.40;;;;;;;23.62;51.90;100471.81;5017771;28;20030;-73
2021/08/20 13:03:13;;;;;;;0.82;0.68;;;;;;;23.45;51.82;100478.53;5025532;28;20026;-73
2021/08/20 13:05:59;;;;;;;0.52;0.30;;;;;;;23.29;51.89;100474.81;5016113;28;20036;-73
2021/08/20 13:08:30;;;;;;;0.47;0.47;;;;;;;22.97;53.32;100474.59;5020330;28;20056;-73
2021/08/20 13:10:58;;;;;;;2.53;0.60;;;;;;;22.89;53.96;100484.69;5022244;28;20049;-74
2021/08/20 13:13:25;;;;;;;6.90;0.80;;;;;;;22.73;54.61;100480.97;5001257;28;20091;-73
2021/08/20 13:15:51;;;;;;;1.08;0.90;;;;;;;22.68;54.77;100482.03;5037268;28;20021;-73
2021/08/20 13:18:16;;;;;;;3.42;0.47;;;;;;;22.70;55.27;100476.91;5033713;28;20487;-73
2021/08/20 13:20:48;;;;;;;0.77;0.40;;;;;;;22.76;55.09;100481.09;5000654;28;20368;-72
2021/08/20 13:23:15;;;;;;;1.55;1.00;;;;;;;22.82;55.16;100479.72;5018770;28;20037;-72
2021/08/20 13:25:41;;;;;;;1.33;0.60;;;;;;;22.98;54.83;100481.78;5032485;28;20081;-73
2021/08/20 13:28:07;;;;;;;0.60;0.43;;;;;;;23.14;54.76;100482.75;5033952;28;20107;-72